Portada
METAR-TAF:

METAR-TAF

Aeroports :

Aeroport Internacional de Dallas/Fort Worth

Dallas-Fort Worth, Texas, Estats Units d'Amèrica

latitud: 32-53-49N, longitud: 097-01-19W, altitud: 183 m

Observació

L'informe es va fer fa 13 minuts, a les 02:53 UTC
Vent 15 kt del Sud
Temperatura 37°C
Humitat 29%
Pressió 1009 hPa
Visibilitat: 16.1 km
Cel clar

METAR: KDFW 200253Z 17015KT 10SM CLR 37/16 A2981 RMK AO2 SLP083 T03670161 53016

Hora: 22:06 (03:06 UTC)

Pronòstic

L'informe es va fer fa 3 hores i 46 minuts, a les 23:20 UTC
Pronòstic vàlid del 20 a les 00 UTC al 21 a les 06 UTC
Vent 11 kt del Sud
Visibilitat: 10 km
Escasses núvols a una alçada de 25000 ft

TAF: KDFW 192320Z 2000/2106 19011KT P6SM FEW250

Observacions i pronòstics meteorològics de més de 4000 aeroports (METAR i TAF).

Les estacions disponibles són els punts grocs i vermells al mapa.

Posi el ratolí al punt desitjat per veure el nom de l'estació.

Feu clic per veure les observacions i els pronòstics meteorològics.

Per canviar el mapa: feu clic els botons verds amb una creu de color negre per apropar; al botó verd amb un guió per allunyar la imatge; o en les fletxes verdes per a mapes adjacents.


METAR-TAF: